sensor_id;sensor_type;location;lat;lon;timestamp;P1;durP1;ratioP1;P2;durP2;ratioP2
23838;SDS011;12100;44.384;20.272;2022-09-09T00:04:46;8.10;;;7.03;;
23838;SDS011;12100;44.384;20.272;2022-09-09T00:10:16;7.82;;;7.03;;
23838;SDS011;12100;44.384;20.272;2022-09-09T00:20:52;7.60;;;6.88;;
23838;SDS011;12100;44.384;20.272;2022-09-09T00:23:33;7.60;;;6.90;;
23838;SDS011;12100;44.384;20.272;2022-09-09T00:26:32;8.52;;;7.28;;
23838;SDS011;12100;44.384;20.272;2022-09-09T00:31:34;7.37;;;6.67;;
23838;SDS011;12100;44.384;20.272;2022-09-09T00:34:03;8.23;;;7.43;;
23838;SDS011;12100;44.384;20.272;2022-09-09T00:36:36;8.60;;;7.35;;
23838;SDS011;12100;44.384;20.272;2022-09-09T00:39:03;9.38;;;7.53;;
23838;SDS011;12100;44.384;20.272;2022-09-09T00:41:41;9.15;;;7.85;;
23838;SDS011;12100;44.384;20.272;2022-09-09T00:52:57;9.43;;;8.30;;
23838;SDS011;12100;44.384;20.272;2022-09-09T00:58:09;12.38;;;8.40;;
23838;SDS011;12100;44.384;20.272;2022-09-09T01:03:38;9.30;;;7.47;;
23838;SDS011;12100;44.384;20.272;2022-09-09T01:06:20;9.25;;;8.35;;
23838;SDS011;12100;44.384;20.272;2022-09-09T01:17:03;9.23;;;8.05;;
23838;SDS011;12100;44.384;20.272;2022-09-09T01:22:21;10.95;;;8.50;;
23838;SDS011;12100;44.384;20.272;2022-09-09T01:25:13;11.93;;;8.88;;
23838;SDS011;12100;44.384;20.272;2022-09-09T01:27:46;9.70;;;8.70;;
23838;SDS011;12100;44.384;20.272;2022-09-09T01:30:15;9.98;;;8.30;;
23838;SDS011;12100;44.384;20.272;2022-09-09T01:32:46;10.25;;;8.00;;
23838;SDS011;12100;44.384;20.272;2022-09-09T01:35:29;10.18;;;8.75;;
23838;SDS011;12100;44.384;20.272;2022-09-09T01:37:57;10.13;;;8.13;;
23838;SDS011;12100;44.384;20.272;2022-09-09T01:40:23;10.13;;;8.82;;
23838;SDS011;12100;44.384;20.272;2022-09-09T01:42:49;10.88;;;8.82;;
23838;SDS011;12100;44.384;20.272;2022-09-09T01:45:16;9.45;;;8.50;;
23838;SDS011;12100;44.384;20.272;2022-09-09T01:47:42;10.00;;;7.82;;
23838;SDS011;12100;44.384;20.272;2022-09-09T01:50:09;12.05;;;9.20;;
23838;SDS011;12100;44.384;20.272;2022-09-09T01:52:39;8.60;;;7.72;;
23838;SDS011;12100;44.384;20.272;2022-09-09T01:55:06;9.80;;;8.18;;
23838;SDS011;12100;44.384;20.272;2022-09-09T02:00:24;12.30;;;8.93;;
23838;SDS011;12100;44.384;20.272;2022-09-09T02:05:38;9.60;;;8.52;;
23838;SDS011;12100;44.384;20.272;2022-09-09T02:08:20;9.43;;;8.30;;
23838;SDS011;12100;44.384;20.272;2022-09-09T02:13:47;14.70;;;8.95;;
23838;SDS011;12100;44.384;20.272;2022-09-09T02:16:18;10.05;;;8.82;;
23838;SDS011;12100;44.384;20.272;2022-09-09T02:19:14;10.18;;;8.63;;
23838;SDS011;12100;44.384;20.272;2022-09-09T02:21:42;10.52;;;8.90;;
23838;SDS011;12100;44.384;20.272;2022-09-09T02:24:10;9.10;;;8.07;;
23838;SDS011;12100;44.384;20.272;2022-09-09T02:26:41;12.18;;;9.20;;
23838;SDS011;12100;44.384;20.272;2022-09-09T02:29:17;9.73;;;8.68;;
23838;SDS011;12100;44.384;20.272;2022-09-09T02:31:47;11.55;;;8.93;;
23838;SDS011;12100;44.384;20.272;2022-09-09T02:34:15;10.70;;;7.97;;
23838;SDS011;12100;44.384;20.272;2022-09-09T02:36:45;13.63;;;8.52;;
23838;SDS011;12100;44.384;20.272;2022-09-09T02:39:12;9.40;;;7.78;;
23838;SDS011;12100;44.384;20.272;2022-09-09T02:41:39;9.77;;;8.35;;
23838;SDS011;12100;44.384;20.272;2022-09-09T02:44:15;11.50;;;8.48;;
23838;SDS011;12100;44.384;20.272;2022-09-09T02:47:28;9.23;;;8.35;;
23838;SDS011;12100;44.384;20.272;2022-09-09T02:50:02;8.63;;;7.72;;
23838;SDS011;12100;44.384;20.272;2022-09-09T02:52:36;9.68;;;8.68;;
23838;SDS011;12100;44.384;20.272;2022-09-09T02:55:18;10.60;;;8.98;;
23838;SDS011;12100;44.384;20.272;2022-09-09T02:57:46;9.90;;;8.85;;
23838;SDS011;12100;44.384;20.272;2022-09-09T03:00:13;8.77;;;7.95;;
23838;SDS011;12100;44.384;20.272;2022-09-09T03:02:40;12.07;;;9.63;;
23838;SDS011;12100;44.384;20.272;2022-09-09T03:05:07;12.57;;;8.90;;
23838;SDS011;12100;44.384;20.272;2022-09-09T03:07:33;8.65;;;7.88;;
23838;SDS011;12100;44.384;20.272;2022-09-09T03:09:59;10.00;;;8.32;;
23838;SDS011;12100;44.384;20.272;2022-09-09T03:12:24;12.82;;;8.73;;
23838;SDS011;12100;44.384;20.272;2022-09-09T03:14:50;10.40;;;8.02;;
23838;SDS011;12100;44.384;20.272;2022-09-09T03:17:16;9.77;;;8.48;;
23838;SDS011;12100;44.384;20.272;2022-09-09T03:19:42;10.57;;;7.82;;
23838;SDS011;12100;44.384;20.272;2022-09-09T03:22:10;9.13;;;8.20;;
23838;SDS011;12100;44.384;20.272;2022-09-09T03:24:36;9.70;;;8.70;;
23838;SDS011;12100;44.384;20.272;2022-09-09T03:27:02;9.95;;;8.40;;
23838;SDS011;12100;44.384;20.272;2022-09-09T03:29:28;10.05;;;8.73;;
23838;SDS011;12100;44.384;20.272;2022-09-09T03:31:53;10.85;;;9.38;;
23838;SDS011;12100;44.384;20.272;2022-09-09T03:34:19;11.60;;;8.60;;
23838;SDS011;12100;44.384;20.272;2022-09-09T03:36:45;11.43;;;8.50;;
23838;SDS011;12100;44.384;20.272;2022-09-09T03:39:13;9.52;;;8.52;;
23838;SDS011;12100;44.384;20.272;2022-09-09T03:41:39;9.70;;;8.70;;
23838;SDS011;12100;44.384;20.272;2022-09-09T03:44:05;11.35;;;9.60;;
23838;SDS011;12100;44.384;20.272;2022-09-09T03:46:30;13.30;;;8.45;;
23838;SDS011;12100;44.384;20.272;2022-09-09T03:48:57;12.73;;;9.13;;
23838;SDS011;12100;44.384;20.272;2022-09-09T03:51:23;12.65;;;9.43;;
23838;SDS011;12100;44.384;20.272;2022-09-09T03:53:49;15.80;;;9.85;;
23838;SDS011;12100;44.384;20.272;2022-09-09T03:56:15;14.60;;;10.10;;
23838;SDS011;12100;44.384;20.272;2022-09-09T03:58:41;13.82;;;9.48;;
23838;SDS011;12100;44.384;20.272;2022-09-09T04:01:10;16.80;;;10.00;;
23838;SDS011;12100;44.384;20.272;2022-09-09T04:03:38;20.70;;;10.05;;
23838;SDS011;12100;44.384;20.272;2022-09-09T04:06:05;24.63;;;10.82;;
23838;SDS011;12100;44.384;20.272;2022-09-09T04:08:33;23.38;;;11.43;;
23838;SDS011;12100;44.384;20.272;2022-09-09T04:10:59;20.33;;;9.95;;
23838;SDS011;12100;44.384;20.272;2022-09-09T04:13:27;19.35;;;10.00;;
23838;SDS011;12100;44.384;20.272;2022-09-09T04:15:57;16.70;;;9.68;;
23838;SDS011;12100;44.384;20.272;2022-09-09T04:18:24;13.63;;;9.32;;
23838;SDS011;12100;44.384;20.272;2022-09-09T04:20:51;17.85;;;9.20;;
23838;SDS011;12100;44.384;20.272;2022-09-09T04:23:18;19.20;;;9.35;;
23838;SDS011;12100;44.384;20.272;2022-09-09T04:25:46;16.88;;;9.77;;
23838;SDS011;12100;44.384;20.272;2022-09-09T04:28:16;19.42;;;9.38;;
23838;SDS011;12100;44.384;20.272;2022-09-09T04:30:43;22.13;;;8.60;;
23838;SDS011;12100;44.384;20.272;2022-09-09T04:33:09;17.42;;;9.05;;
23838;SDS011;12100;44.384;20.272;2022-09-09T04:35:36;17.52;;;9.50;;
23838;SDS011;12100;44.384;20.272;2022-09-09T04:38:03;17.55;;;8.70;;
23838;SDS011;12100;44.384;20.272;2022-09-09T04:40:29;14.48;;;8.35;;
23838;SDS011;12100;44.384;20.272;2022-09-09T04:42:59;18.27;;;9.32;;
23838;SDS011;12100;44.384;20.272;2022-09-09T04:45:25;16.73;;;9.55;;
23838;SDS011;12100;44.384;20.272;2022-09-09T04:47:52;20.10;;;9.90;;
23838;SDS011;12100;44.384;20.272;2022-09-09T04:50:18;16.65;;;10.23;;
23838;SDS011;12100;44.384;20.272;2022-09-09T04:52:44;16.77;;;9.73;;
23838;SDS011;12100;44.384;20.272;2022-09-09T04:55:10;17.88;;;10.13;;
23838;SDS011;12100;44.384;20.272;2022-09-09T04:57:38;20.17;;;9.07;;
23838;SDS011;12100;44.384;20.272;2022-09-09T05:00:04;13.75;;;9.25;;
23838;SDS011;12100;44.384;20.272;2022-09-09T05:02:31;14.13;;;8.85;;
23838;SDS011;12100;44.384;20.272;2022-09-09T05:04:57;17.83;;;8.95;;
23838;SDS011;12100;44.384;20.272;2022-09-09T05:07:23;14.32;;;9.00;;
23838;SDS011;12100;44.384;20.272;2022-09-09T05:09:51;16.13;;;9.35;;
23838;SDS011;12100;44.384;20.272;2022-09-09T05:12:17;17.58;;;10.35;;
23838;SDS011;12100;44.384;20.272;2022-09-09T05:14:43;16.10;;;8.93;;
23838;SDS011;12100;44.384;20.272;2022-09-09T05:17:09;22.20;;;10.32;;
23838;SDS011;12100;44.384;20.272;2022-09-09T05:19:35;18.23;;;9.60;;
23838;SDS011;12100;44.384;20.272;2022-09-09T05:22:01;25.55;;;10.05;;
23838;SDS011;12100;44.384;20.272;2022-09-09T05:24:27;20.17;;;10.95;;
23838;SDS011;12100;44.384;20.272;2022-09-09T05:26:54;26.45;;;10.73;;
23838;SDS011;12100;44.384;20.272;2022-09-09T05:29:23;26.20;;;11.80;;
23838;SDS011;12100;44.384;20.272;2022-09-09T05:31:48;29.13;;;11.30;;
23838;SDS011;12100;44.384;20.272;2022-09-09T05:34:14;32.22;;;11.43;;
23838;SDS011;12100;44.384;20.272;2022-09-09T05:36:40;22.33;;;9.65;;
23838;SDS011;12100;44.384;20.272;2022-09-09T05:39:06;29.83;;;10.02;;
23838;SDS011;12100;44.384;20.272;2022-09-09T05:41:32;20.50;;;11.02;;
23838;SDS011;12100;44.384;20.272;2022-09-09T05:43:57;24.88;;;9.70;;
23838;SDS011;12100;44.384;20.272;2022-09-09T05:46:26;26.13;;;10.95;;
23838;SDS011;12100;44.384;20.272;2022-09-09T05:48:52;27.50;;;11.35;;
23838;SDS011;12100;44.384;20.272;2022-09-09T05:51:20;28.75;;;11.15;;
23838;SDS011;12100;44.384;20.272;2022-09-09T05:53:51;29.85;;;10.63;;
23838;SDS011;12100;44.384;20.272;2022-09-09T05:56:21;25.13;;;9.40;;
23838;SDS011;12100;44.384;20.272;2022-09-09T05:58:50;16.40;;;10.00;;
23838;SDS011;12100;44.384;20.272;2022-09-09T06:01:17;22.85;;;10.48;;
23838;SDS011;12100;44.384;20.272;2022-09-09T06:03:45;28.33;;;10.98;;
23838;SDS011;12100;44.384;20.272;2022-09-09T06:06:13;24.20;;;12.23;;
23838;SDS011;12100;44.384;20.272;2022-09-09T06:08:43;17.85;;;10.07;;
23838;SDS011;12100;44.384;20.272;2022-09-09T06:11:11;22.65;;;10.95;;
23838;SDS011;12100;44.384;20.272;2022-09-09T06:13:41;19.50;;;10.98;;
23838;SDS011;12100;44.384;20.272;2022-09-09T06:16:08;23.27;;;11.02;;
23838;SDS011;12100;44.384;20.272;2022-09-09T06:18:39;21.77;;;11.05;;
23838;SDS011;12100;44.384;20.272;2022-09-09T06:21:06;18.48;;;10.48;;
23838;SDS011;12100;44.384;20.272;2022-09-09T06:23:34;15.30;;;9.43;;
23838;SDS011;12100;44.384;20.272;2022-09-09T06:26:04;16.02;;;9.60;;
23838;SDS011;12100;44.384;20.272;2022-09-09T06:28:32;24.52;;;11.38;;
23838;SDS011;12100;44.384;20.272;2022-09-09T06:31:02;17.60;;;10.88;;
23838;SDS011;12100;44.384;20.272;2022-09-09T06:33:33;20.90;;;11.93;;
23838;SDS011;12100;44.384;20.272;2022-09-09T06:36:00;19.65;;;11.10;;
23838;SDS011;12100;44.384;20.272;2022-09-09T06:38:28;21.40;;;11.55;;
23838;SDS011;12100;44.384;20.272;2022-09-09T06:40:55;21.80;;;12.57;;
23838;SDS011;12100;44.384;20.272;2022-09-09T06:43:22;21.77;;;12.25;;
23838;SDS011;12100;44.384;20.272;2022-09-09T06:45:53;31.13;;;12.85;;
23838;SDS011;12100;44.384;20.272;2022-09-09T06:48:19;21.30;;;11.82;;
23838;SDS011;12100;44.384;20.272;2022-09-09T06:50:45;16.23;;;11.05;;
23838;SDS011;12100;44.384;20.272;2022-09-09T06:53:11;14.73;;;10.77;;
23838;SDS011;12100;44.384;20.272;2022-09-09T06:55:37;15.48;;;10.00;;
23838;SDS011;12100;44.384;20.272;2022-09-09T06:58:08;14.98;;;10.35;;
23838;SDS011;12100;44.384;20.272;2022-09-09T07:00:34;14.60;;;10.82;;
23838;SDS011;12100;44.384;20.272;2022-09-09T07:03:02;18.95;;;11.45;;
23838;SDS011;12100;44.384;20.272;2022-09-09T07:05:28;13.38;;;10.27;;
23838;SDS011;12100;44.384;20.272;2022-09-09T07:07:54;14.43;;;10.38;;
23838;SDS011;12100;44.384;20.272;2022-09-09T07:10:20;19.42;;;10.60;;
23838;SDS011;12100;44.384;20.272;2022-09-09T07:12:49;16.60;;;10.48;;
23838;SDS011;12100;44.384;20.272;2022-09-09T07:15:17;11.93;;;10.20;;
23838;SDS011;12100;44.384;20.272;2022-09-09T07:17:43;13.90;;;9.65;;
23838;SDS011;12100;44.384;20.272;2022-09-09T07:20:10;16.58;;;10.52;;
23838;SDS011;12100;44.384;20.272;2022-09-09T07:22:37;17.00;;;9.52;;
23838;SDS011;12100;44.384;20.272;2022-09-09T07:25:03;21.15;;;11.43;;
23838;SDS011;12100;44.384;20.272;2022-09-09T07:27:29;20.30;;;10.20;;
23838;SDS011;12100;44.384;20.272;2022-09-09T07:29:55;17.33;;;10.98;;
23838;SDS011;12100;44.384;20.272;2022-09-09T07:32:22;17.98;;;10.10;;
23838;SDS011;12100;44.384;20.272;2022-09-09T07:34:50;26.40;;;10.18;;
23838;SDS011;12100;44.384;20.272;2022-09-09T07:37:16;20.63;;;9.77;;
23838;SDS011;12100;44.384;20.272;2022-09-09T07:39:42;15.10;;;8.88;;
23838;SDS011;12100;44.384;20.272;2022-09-09T07:42:09;14.85;;;9.43;;
23838;SDS011;12100;44.384;20.272;2022-09-09T07:44:36;18.63;;;8.98;;
23838;SDS011;12100;44.384;20.272;2022-09-09T07:47:04;17.63;;;8.85;;
23838;SDS011;12100;44.384;20.272;2022-09-09T07:49:31;15.88;;;8.18;;
23838;SDS011;12100;44.384;20.272;2022-09-09T07:51:57;11.93;;;7.90;;
23838;SDS011;12100;44.384;20.272;2022-09-09T07:54:24;13.77;;;7.82;;
23838;SDS011;12100;44.384;20.272;2022-09-09T07:56:51;14.80;;;7.80;;
23838;SDS011;12100;44.384;20.272;2022-09-09T07:59:17;12.23;;;7.20;;
23838;SDS011;12100;44.384;20.272;2022-09-09T08:01:45;14.52;;;8.43;;
23838;SDS011;12100;44.384;20.272;2022-09-09T08:04:15;11.07;;;8.25;;
23838;SDS011;12100;44.384;20.272;2022-09-09T08:06:47;12.75;;;9.20;;
23838;SDS011;12100;44.384;20.272;2022-09-09T08:09:18;10.35;;;7.38;;
23838;SDS011;12100;44.384;20.272;2022-09-09T08:11:44;11.50;;;7.13;;
23838;SDS011;12100;44.384;20.272;2022-09-09T08:14:10;11.23;;;8.00;;
23838;SDS011;12100;44.384;20.272;2022-09-09T08:16:38;13.10;;;7.90;;
23838;SDS011;12100;44.384;20.272;2022-09-09T08:19:06;10.15;;;7.57;;
23838;SDS011;12100;44.384;20.272;2022-09-09T08:21:33;11.60;;;8.15;;
23838;SDS011;12100;44.384;20.272;2022-09-09T08:24:02;12.30;;;8.05;;
23838;SDS011;12100;44.384;20.272;2022-09-09T08:26:29;11.52;;;7.32;;
23838;SDS011;12100;44.384;20.272;2022-09-09T08:28:57;12.35;;;7.32;;
23838;SDS011;12100;44.384;20.272;2022-09-09T08:31:28;8.75;;;7.18;;
23838;SDS011;12100;44.384;20.272;2022-09-09T08:33:59;11.70;;;7.82;;
23838;SDS011;12100;44.384;20.272;2022-09-09T08:36:28;18.42;;;8.18;;
23838;SDS011;12100;44.384;20.272;2022-09-09T08:38:56;13.43;;;7.28;;
23838;SDS011;12100;44.384;20.272;2022-09-09T08:53:04;10.05;;;6.25;;
23838;SDS011;12100;44.384;20.272;2022-09-09T08:55:39;12.98;;;6.30;;
23838;SDS011;12100;44.384;20.272;2022-09-09T08:58:17;10.35;;;6.38;;
23838;SDS011;12100;44.384;20.272;2022-09-09T09:14:18;10.93;;;5.57;;
23838;SDS011;12100;44.384;20.272;2022-09-09T09:16:50;11.90;;;5.55;;
23838;SDS011;12100;44.384;20.272;2022-09-09T09:19:17;12.18;;;5.93;;
23838;SDS011;12100;44.384;20.272;2022-09-09T09:30:00;11.27;;;5.45;;
23838;SDS011;12100;44.384;20.272;2022-09-09T09:35:15;8.65;;;5.60;;
23838;SDS011;12100;44.384;20.272;2022-09-09T09:37:41;12.38;;;5.65;;
23838;SDS011;12100;44.384;20.272;2022-09-09T09:40:19;9.30;;;5.22;;
23838;SDS011;12100;44.384;20.272;2022-09-09T09:42:48;7.97;;;5.57;;
23838;SDS011;12100;44.384;20.272;2022-09-09T09:46:01;7.75;;;5.32;;
23838;SDS011;12100;44.384;20.272;2022-09-09T09:48:12;9.00;;;5.80;;
23838;SDS011;12100;44.384;20.272;2022-09-09T09:53:23;9.45;;;5.95;;
23838;SDS011;12100;44.384;20.272;2022-09-09T09:55:59;8.52;;;6.07;;
23838;SDS011;12100;44.384;20.272;2022-09-09T09:58:57;7.55;;;4.80;;
23838;SDS011;12100;44.384;20.272;2022-09-09T10:01:23;7.75;;;4.93;;
23838;SDS011;12100;44.384;20.272;2022-09-09T10:03:57;6.82;;;4.57;;
23838;SDS011;12100;44.384;20.272;2022-09-09T10:06:43;7.63;;;4.88;;
23838;SDS011;12100;44.384;20.272;2022-09-09T10:28:15;7.93;;;4.38;;
23838;SDS011;12100;44.384;20.272;2022-09-09T10:34:06;10.18;;;4.80;;
23838;SDS011;12100;44.384;20.272;2022-09-09T10:41:12;7.50;;;4.90;;
23838;SDS011;12100;44.384;20.272;2022-09-09T10:43:50;9.50;;;4.97;;
23838;SDS011;12100;44.384;20.272;2022-09-09T10:54:25;6.13;;;4.97;;
23838;SDS011;12100;44.384;20.272;2022-09-09T10:57:24;6.45;;;5.38;;
23838;SDS011;12100;44.384;20.272;2022-09-09T11:00:05;8.70;;;4.30;;
23838;SDS011;12100;44.384;20.272;2022-09-09T11:02:39;9.15;;;3.83;;
23838;SDS011;12100;44.384;20.272;2022-09-09T11:05:14;9.65;;;5.65;;
23838;SDS011;12100;44.384;20.272;2022-09-09T11:08:01;10.65;;;4.30;;
23838;SDS011;12100;44.384;20.272;2022-09-09T11:10:39;14.07;;;4.63;;
23838;SDS011;12100;44.384;20.272;2022-09-09T11:13:20;6.40;;;4.15;;
23838;SDS011;12100;44.384;20.272;2022-09-09T11:21:48;9.52;;;2.95;;
23838;SDS011;12100;44.384;20.272;2022-09-09T11:27:16;7.95;;;3.10;;
23838;SDS011;12100;44.384;20.272;2022-09-09T11:40:40;6.68;;;2.85;;
23838;SDS011;12100;44.384;20.272;2022-09-09T11:46:10;13.73;;;3.88;;
23838;SDS011;12100;44.384;20.272;2022-09-09T11:53:55;6.82;;;3.60;;
23838;SDS011;12100;44.384;20.272;2022-09-09T11:59:20;5.35;;;2.53;;
23838;SDS011;12100;44.384;20.272;2022-09-09T12:12:55;7.72;;;3.60;;
23838;SDS011;12100;44.384;20.272;2022-09-09T12:15:32;7.85;;;3.92;;
23838;SDS011;12100;44.384;20.272;2022-09-09T12:17:58;10.70;;;4.18;;
23838;SDS011;12100;44.384;20.272;2022-09-09T12:36:57;11.63;;;3.97;;
23838;SDS011;12100;44.384;20.272;2022-09-09T12:39:33;9.38;;;2.75;;
23838;SDS011;12100;44.384;20.272;2022-09-09T12:42:03;7.38;;;2.50;;
23838;SDS011;12100;44.384;20.272;2022-09-09T12:44:29;9.27;;;3.30;;
23838;SDS011;12100;44.384;20.272;2022-09-09T12:46:58;8.07;;;2.60;;
23838;SDS011;12100;44.384;20.272;2022-09-09T12:51:53;6.97;;;3.33;;
23838;SDS011;12100;44.384;20.272;2022-09-09T12:54:22;7.50;;;2.75;;
23838;SDS011;12100;44.384;20.272;2022-09-09T12:56:48;8.18;;;3.53;;
23838;SDS011;12100;44.384;20.272;2022-09-09T12:59:34;10.57;;;3.38;;
23838;SDS011;12100;44.384;20.272;2022-09-09T13:02:14;5.60;;;2.45;;
23838;SDS011;12100;44.384;20.272;2022-09-09T13:04:46;7.75;;;2.95;;
23838;SDS011;12100;44.384;20.272;2022-09-09T13:07:13;6.47;;;2.80;;
23838;SDS011;12100;44.384;20.272;2022-09-09T13:09:41;8.27;;;2.95;;
23838;SDS011;12100;44.384;20.272;2022-09-09T13:12:13;6.38;;;3.25;;
23838;SDS011;12100;44.384;20.272;2022-09-09T13:14:45;6.13;;;3.05;;
23838;SDS011;12100;44.384;20.272;2022-09-09T13:17:26;7.22;;;3.45;;
23838;SDS011;12100;44.384;20.272;2022-09-09T13:19:55;8.23;;;3.13;;
23838;SDS011;12100;44.384;20.272;2022-09-09T13:22:33;9.27;;;3.38;;
23838;SDS011;12100;44.384;20.272;2022-09-09T13:25:51;5.70;;;2.83;;
23838;SDS011;12100;44.384;20.272;2022-09-09T13:27:52;12.60;;;3.22;;
23838;SDS011;12100;44.384;20.272;2022-09-09T13:30:40;9.88;;;3.53;;
23838;SDS011;12100;44.384;20.272;2022-09-09T13:38:20;6.00;;;3.00;;
23838;SDS011;12100;44.384;20.272;2022-09-09T13:40:57;10.20;;;3.00;;
23838;SDS011;12100;44.384;20.272;2022-09-09T13:43:24;11.93;;;4.30;;
23838;SDS011;12100;44.384;20.272;2022-09-09T13:45:59;7.38;;;3.13;;
23838;SDS011;12100;44.384;20.272;2022-09-09T13:48:26;7.80;;;3.15;;
23838;SDS011;12100;44.384;20.272;2022-09-09T13:51:00;8.40;;;3.20;;
23838;SDS011;12100;44.384;20.272;2022-09-09T13:53:29;7.35;;;3.30;;
23838;SDS011;12100;44.384;20.272;2022-09-09T13:55:55;8.45;;;3.40;;
23838;SDS011;12100;44.384;20.272;2022-09-09T13:58:22;7.78;;;3.63;;
23838;SDS011;12100;44.384;20.272;2022-09-09T14:00:50;11.80;;;3.67;;
23838;SDS011;12100;44.384;20.272;2022-09-09T14:03:16;7.57;;;3.38;;
23838;SDS011;12100;44.384;20.272;2022-09-09T14:05:43;6.65;;;3.20;;
23838;SDS011;12100;44.384;20.272;2022-09-09T14:08:13;7.07;;;3.47;;
23838;SDS011;12100;44.384;20.272;2022-09-09T14:10:45;9.50;;;3.70;;
23838;SDS011;12100;44.384;20.272;2022-09-09T14:13:11;7.07;;;3.60;;
23838;SDS011;12100;44.384;20.272;2022-09-09T14:15:37;6.43;;;3.35;;
23838;SDS011;12100;44.384;20.272;2022-09-09T14:18:03;6.78;;;3.38;;
23838;SDS011;12100;44.384;20.272;2022-09-09T14:20:29;6.43;;;3.38;;
23838;SDS011;12100;44.384;20.272;2022-09-09T14:22:55;8.23;;;3.35;;
23838;SDS011;12100;44.384;20.272;2022-09-09T14:25:22;6.57;;;3.08;;
23838;SDS011;12100;44.384;20.272;2022-09-09T14:27:48;6.85;;;3.33;;
23838;SDS011;12100;44.384;20.272;2022-09-09T14:30:16;6.35;;;2.80;;
23838;SDS011;12100;44.384;20.272;2022-09-09T14:32:42;9.35;;;2.80;;
23838;SDS011;12100;44.384;20.272;2022-09-09T14:35:07;7.07;;;3.10;;
23838;SDS011;12100;44.384;20.272;2022-09-09T14:37:33;7.50;;;3.40;;
23838;SDS011;12100;44.384;20.272;2022-09-09T14:39:59;9.20;;;3.13;;
23838;SDS011;12100;44.384;20.272;2022-09-09T14:42:25;7.70;;;3.03;;
23838;SDS011;12100;44.384;20.272;2022-09-09T14:44:51;7.07;;;3.38;;
23838;SDS011;12100;44.384;20.272;2022-09-09T14:47:17;6.45;;;3.08;;
23838;SDS011;12100;44.384;20.272;2022-09-09T14:49:43;8.45;;;2.90;;
23838;SDS011;12100;44.384;20.272;2022-09-09T14:52:10;7.20;;;3.40;;
23838;SDS011;12100;44.384;20.272;2022-09-09T14:54:36;4.93;;;2.83;;
23838;SDS011;12100;44.384;20.272;2022-09-09T14:57:02;9.25;;;3.20;;
23838;SDS011;12100;44.384;20.272;2022-09-09T14:59:28;10.88;;;3.22;;
23838;SDS011;12100;44.384;20.272;2022-09-09T15:01:54;8.63;;;3.28;;
23838;SDS011;12100;44.384;20.272;2022-09-09T15:04:19;7.53;;;2.95;;
23838;SDS011;12100;44.384;20.272;2022-09-09T15:06:45;5.97;;;2.78;;
23838;SDS011;12100;44.384;20.272;2022-09-09T15:09:13;6.43;;;3.25;;
23838;SDS011;12100;44.384;20.272;2022-09-09T15:11:39;3.80;;;2.67;;
23838;SDS011;12100;44.384;20.272;2022-09-09T15:14:06;7.95;;;2.63;;
23838;SDS011;12100;44.384;20.272;2022-09-09T15:16:33;5.30;;;2.45;;
23838;SDS011;12100;44.384;20.272;2022-09-09T15:19:00;5.47;;;2.75;;
23838;SDS011;12100;44.384;20.272;2022-09-09T15:21:28;4.75;;;2.60;;
23838;SDS011;12100;44.384;20.272;2022-09-09T15:23:56;9.60;;;4.43;;
23838;SDS011;12100;44.384;20.272;2022-09-09T15:26:23;11.15;;;4.28;;
23838;SDS011;12100;44.384;20.272;2022-09-09T15:28:49;8.75;;;3.75;;
23838;SDS011;12100;44.384;20.272;2022-09-09T15:31:25;12.07;;;4.68;;
23838;SDS011;12100;44.384;20.272;2022-09-09T15:34:11;9.68;;;3.83;;
23838;SDS011;12100;44.384;20.272;2022-09-09T15:36:42;13.43;;;4.28;;
23838;SDS011;12100;44.384;20.272;2022-09-09T15:39:12;11.70;;;4.10;;
23838;SDS011;12100;44.384;20.272;2022-09-09T15:41:41;11.40;;;3.60;;
23838;SDS011;12100;44.384;20.272;2022-09-09T15:44:08;10.63;;;3.92;;
23838;SDS011;12100;44.384;20.272;2022-09-09T15:46:41;10.52;;;3.80;;
23838;SDS011;12100;44.384;20.272;2022-09-09T15:49:14;13.15;;;4.88;;
23838;SDS011;12100;44.384;20.272;2022-09-09T15:51:53;11.60;;;4.53;;
23838;SDS011;12100;44.384;20.272;2022-09-09T15:54:21;6.22;;;4.13;;
23838;SDS011;12100;44.384;20.272;2022-09-09T15:56:53;12.40;;;4.88;;
23838;SDS011;12100;44.384;20.272;2022-09-09T15:59:21;10.68;;;3.80;;
23838;SDS011;12100;44.384;20.272;2022-09-09T16:01:48;8.27;;;4.47;;
23838;SDS011;12100;44.384;20.272;2022-09-09T16:04:16;7.60;;;3.90;;
23838;SDS011;12100;44.384;20.272;2022-09-09T16:06:56;6.40;;;3.53;;
23838;SDS011;12100;44.384;20.272;2022-09-09T16:09:23;11.55;;;4.55;;
23838;SDS011;12100;44.384;20.272;2022-09-09T16:11:50;14.25;;;4.40;;
23838;SDS011;12100;44.384;20.272;2022-09-09T16:14:18;13.57;;;5.28;;
23838;SDS011;12100;44.384;20.272;2022-09-09T16:16:44;10.98;;;4.90;;
23838;SDS011;12100;44.384;20.272;2022-09-09T16:19:10;11.38;;;4.13;;
23838;SDS011;12100;44.384;20.272;2022-09-09T16:21:38;10.95;;;4.53;;
23838;SDS011;12100;44.384;20.272;2022-09-09T16:24:07;9.80;;;4.55;;
23838;SDS011;12100;44.384;20.272;2022-09-09T16:26:36;8.88;;;4.30;;
23838;SDS011;12100;44.384;20.272;2022-09-09T16:29:03;11.50;;;4.95;;
23838;SDS011;12100;44.384;20.272;2022-09-09T16:31:30;8.57;;;4.85;;
23838;SDS011;12100;44.384;20.272;2022-09-09T16:33:59;8.18;;;4.00;;
23838;SDS011;12100;44.384;20.272;2022-09-09T16:36:29;10.30;;;4.80;;
23838;SDS011;12100;44.384;20.272;2022-09-09T16:38:57;5.35;;;3.63;;
23838;SDS011;12100;44.384;20.272;2022-09-09T16:41:25;11.27;;;4.65;;
23838;SDS011;12100;44.384;20.272;2022-09-09T16:43:55;8.95;;;5.07;;
23838;SDS011;12100;44.384;20.272;2022-09-09T16:46:22;14.25;;;5.22;;
23838;SDS011;12100;44.384;20.272;2022-09-09T16:48:49;12.88;;;5.32;;
23838;SDS011;12100;44.384;20.272;2022-09-09T16:53:44;11.55;;;4.28;;
23838;SDS011;12100;44.384;20.272;2022-09-09T16:56:12;9.38;;;4.13;;
23838;SDS011;12100;44.384;20.272;2022-09-09T16:58:42;6.47;;;4.65;;
23838;SDS011;12100;44.384;20.272;2022-09-09T17:01:08;8.68;;;4.82;;
23838;SDS011;12100;44.384;20.272;2022-09-09T17:03:36;9.73;;;4.75;;
23838;SDS011;12100;44.384;20.272;2022-09-09T17:06:02;6.85;;;4.85;;
23838;SDS011;12100;44.384;20.272;2022-09-09T17:08:33;11.68;;;4.32;;
23838;SDS011;12100;44.384;20.272;2022-09-09T17:10:59;10.18;;;4.93;;
23838;SDS011;12100;44.384;20.272;2022-09-09T17:13:25;11.88;;;4.82;;
23838;SDS011;12100;44.384;20.272;2022-09-09T17:15:51;12.80;;;5.43;;
23838;SDS011;12100;44.384;20.272;2022-09-09T17:18:17;15.07;;;5.70;;
23838;SDS011;12100;44.384;20.272;2022-09-09T17:20:43;12.48;;;5.10;;
23838;SDS011;12100;44.384;20.272;2022-09-09T17:23:09;8.63;;;4.00;;
23838;SDS011;12100;44.384;20.272;2022-09-09T17:25:36;18.17;;;4.97;;
23838;SDS011;12100;44.384;20.272;2022-09-09T17:28:03;8.48;;;4.35;;
23838;SDS011;12100;44.384;20.272;2022-09-09T17:30:35;10.52;;;4.47;;
23838;SDS011;12100;44.384;20.272;2022-09-09T17:33:02;8.57;;;4.30;;
23838;SDS011;12100;44.384;20.272;2022-09-09T17:35:30;10.10;;;5.00;;
23838;SDS011;12100;44.384;20.272;2022-09-09T17:37:56;8.40;;;4.38;;
23838;SDS011;12100;44.384;20.272;2022-09-09T17:40:22;8.85;;;4.45;;
23838;SDS011;12100;44.384;20.272;2022-09-09T17:42:48;9.32;;;4.53;;
23838;SDS011;12100;44.384;20.272;2022-09-09T17:45:14;11.18;;;4.03;;
23838;SDS011;12100;44.384;20.272;2022-09-09T17:47:40;8.90;;;4.68;;
23838;SDS011;12100;44.384;20.272;2022-09-09T17:50:08;12.60;;;5.03;;
23838;SDS011;12100;44.384;20.272;2022-09-09T17:52:36;12.73;;;4.43;;